createdAt,value
2023-04-14T00:02:04.844Z,99074.73
2023-04-14T00:04:33.732Z,99075.15
2023-04-14T00:07:02.379Z,99076.98
2023-04-14T00:09:31.956Z,99077.84
2023-04-14T00:12:00.262Z,99081.25
2023-04-14T00:14:28.327Z,99082.77
2023-04-14T00:17:00.510Z,99090.54
2023-04-14T00:19:29.604Z,99088.97
2023-04-14T00:21:57.832Z,99092.23
2023-04-14T00:24:26.805Z,99093.83
2023-04-14T00:26:55.093Z,99092.04
2023-04-14T00:29:23.517Z,99091.52
2023-04-14T00:31:52.145Z,99091.64
2023-04-14T00:34:20.424Z,99089.56
2023-04-14T00:36:48.738Z,99083.42
2023-04-14T00:39:17.037Z,99081.48
2023-04-14T00:41:46.025Z,99079.30
2023-04-14T00:44:14.687Z,99076.68
2023-04-14T00:46:43.839Z,99072.29
2023-04-14T00:49:12.641Z,99073.39
2023-04-14T00:51:40.947Z,99074.98
2023-04-14T00:54:09.202Z,99076.52
2023-04-14T00:56:38.689Z,99075.05
2023-04-14T00:59:08.932Z,99078.42
2023-04-14T01:01:38.254Z,99074.19
2023-04-14T01:04:08.840Z,99072.58
2023-04-14T01:06:37.978Z,99074.65
2023-04-14T01:09:06.628Z,99081.33
2023-04-14T01:12:12.202Z,99084.54
2023-04-14T01:14:48.192Z,99080.95
2023-04-14T01:17:21.485Z,99083.61
2023-04-14T01:20:18.188Z,99080.80
2023-04-14T01:22:54.759Z,99086.75
2023-04-14T01:25:38.171Z,99083.48
2023-04-14T01:28:46.412Z,99090.21
2023-04-14T01:31:23.652Z,99089.34
2023-04-14T01:34:02.654Z,99088.01
2023-04-14T01:36:42.323Z,99086.48
2023-04-14T01:39:14.340Z,99090.21
2023-04-14T01:41:45.093Z,99088.21
2023-04-14T01:44:13.663Z,99091.09
2023-04-14T01:46:43.404Z,99086.70
2023-04-14T01:49:11.887Z,99091.05
2023-04-14T01:51:41.469Z,99091.59
2023-04-14T01:54:09.912Z,99089.54
2023-04-14T01:56:38.790Z,99089.48
2023-04-14T01:59:08.956Z,99089.69
2023-04-14T02:01:38.379Z,99091.65
2023-04-14T02:04:07.794Z,99096.83
2023-04-14T02:06:36.219Z,99095.85
2023-04-14T02:09:10.546Z,99096.85
2023-04-14T02:11:38.925Z,99096.20
2023-04-14T02:14:07.487Z,99096.30
2023-04-14T02:16:39.221Z,99096.80
2023-04-14T02:19:08.331Z,99098.65
2023-04-14T02:21:37.739Z,99096.87
2023-04-14T02:24:08.279Z,99097.63
2023-04-14T02:26:37.581Z,99098.72
2023-04-14T02:29:10.184Z,99101.40
2023-04-14T02:31:44.650Z,99100.69
2023-04-14T02:34:15.552Z,99103.73
2023-04-14T02:36:55.802Z,99109.88
2023-04-14T02:39:29.913Z,99109.54
2023-04-14T02:42:06.311Z,99117.90
2023-04-14T02:44:36.433Z,99118.02
2023-04-14T02:47:07.562Z,99122.52
2023-04-14T02:49:44.654Z,99121.80
2023-04-14T02:52:16.110Z,99122.44
2023-04-14T02:54:49.343Z,99123.25
2023-04-14T02:57:17.992Z,99127.00
2023-04-14T02:59:48.092Z,99127.22
2023-04-14T03:02:19.049Z,99129.30
2023-04-14T03:04:53.519Z,99131.95
2023-04-14T03:07:48.076Z,99134.45
2023-04-14T03:10:16.964Z,99133.86
2023-04-14T03:12:49.972Z,99131.79
2023-04-14T03:15:19.307Z,99135.31
2023-04-14T03:17:48.953Z,99137.05
2023-04-14T03:20:20.205Z,99139.98
2023-04-14T03:23:05.547Z,99137.71
2023-04-14T03:25:41.956Z,99133.02
2023-04-14T03:28:16.174Z,99136.08
2023-04-14T03:30:47.704Z,99135.70
2023-04-14T03:33:22.105Z,99133.90
2023-04-14T03:35:50.831Z,99136.80
2023-04-14T03:38:19.315Z,99140.96
2023-04-14T03:40:48.027Z,99143.67
2023-04-14T03:43:22.612Z,99147.20
2023-04-14T03:45:59.046Z,99149.88
2023-04-14T03:48:29.943Z,99153.41
2023-04-14T03:51:00.198Z,99160.13
2023-04-14T03:53:28.961Z,99157.48
2023-04-14T03:55:58.667Z,99159.64
2023-04-14T03:58:28.930Z,99155.58
2023-04-14T04:00:57.073Z,99161.60
2023-04-14T04:03:26.490Z,99167.45
2023-04-14T04:05:55.118Z,99171.63
2023-04-14T04:08:23.661Z,99175.64
2023-04-14T04:10:51.845Z,99182.00
2023-04-14T04:13:20.481Z,99183.30
2023-04-14T04:15:49.721Z,99183.73
2023-04-14T04:18:18.529Z,99188.77
2023-04-14T04:20:46.895Z,99191.48
2023-04-14T04:23:17.654Z,99190.34
2023-04-14T04:25:47.399Z,99192.95
2023-04-14T04:28:44.256Z,99197.29
2023-04-14T04:31:13.133Z,99200.87
2023-04-14T04:33:41.872Z,99201.73
2023-04-14T04:36:13.471Z,99200.05
2023-04-14T04:38:43.470Z,99206.30
2023-04-14T04:41:25.892Z,99212.11
2023-04-14T04:43:54.811Z,99214.27
2023-04-14T04:46:38.177Z,99222.25
2023-04-14T04:49:07.147Z,99218.40
2023-04-14T04:51:35.433Z,99224.46
2023-04-14T04:54:04.194Z,99229.95
2023-04-14T04:56:34.113Z,99234.99
2023-04-14T04:59:02.997Z,99237.10
2023-04-14T05:01:31.905Z,99238.73
2023-04-14T05:04:01.925Z,99243.77
2023-04-14T05:06:30.395Z,99240.70
2023-04-14T05:08:58.707Z,99241.63
2023-04-14T05:11:27.653Z,99244.65
2023-04-14T05:13:56.332Z,99246.13
2023-04-14T05:16:25.628Z,99248.19
2023-04-14T05:18:58.189Z,99253.08
2023-04-14T05:21:26.605Z,99252.85
2023-04-14T05:23:54.933Z,99256.87
2023-04-14T05:26:48.758Z,99256.70
2023-04-14T05:29:16.529Z,99257.39
2023-04-14T05:31:45.096Z,99260.27
2023-04-14T05:34:13.519Z,99258.48
2023-04-14T05:36:45.746Z,99260.71
2023-04-14T05:39:14.672Z,99263.10
2023-04-14T05:41:45.048Z,99265.92
2023-04-14T05:44:13.912Z,99264.77
2023-04-14T05:46:42.146Z,99266.20
2023-04-14T05:49:12.704Z,99268.36
2023-04-14T05:51:41.358Z,99268.96
2023-04-14T05:54:14.276Z,99268.86
2023-04-14T05:56:42.410Z,99270.86
2023-04-14T05:59:10.814Z,99275.24
2023-04-14T06:01:39.732Z,99281.17
2023-04-14T06:04:09.488Z,99289.27
2023-04-14T06:06:38.415Z,99288.17
2023-04-14T06:09:08.393Z,99297.14
2023-04-14T06:11:38.541Z,99294.60
2023-04-14T06:14:07.653Z,99302.25
2023-04-14T06:16:36.395Z,99297.20
2023-04-14T06:19:04.891Z,99305.29
2023-04-14T06:21:35.502Z,99306.98
2023-04-14T06:24:04.027Z,99308.77
2023-04-14T06:26:34.040Z,99311.38
2023-04-14T06:29:03.526Z,99311.71
2023-04-14T06:31:31.879Z,99310.84
2023-04-14T06:34:00.711Z,99313.61
2023-04-14T06:36:29.260Z,99314.31
2023-04-14T06:38:58.231Z,99317.96
2023-04-14T06:41:27.512Z,99316.81
2023-04-14T06:43:57.258Z,99319.46
2023-04-14T06:46:26.099Z,99314.96
2023-04-14T06:48:54.402Z,99318.45
2023-04-14T06:51:23.891Z,99325.77
2023-04-14T06:53:53.223Z,99322.95
2023-04-14T06:56:21.993Z,99322.08
2023-04-14T06:58:55.437Z,99327.61
2023-04-14T07:01:24.391Z,99330.13
2023-04-14T07:03:52.594Z,99333.21
2023-04-14T07:06:20.971Z,99338.14
2023-04-14T07:08:49.507Z,99342.44
2023-04-14T07:11:17.686Z,99346.89
2023-04-14T07:13:46.736Z,99350.96
2023-04-14T07:16:17.079Z,99352.75
2023-04-14T07:18:46.180Z,99352.10
2023-04-14T07:21:15.224Z,99356.93
2023-04-14T07:23:43.417Z,99355.41
2023-04-14T07:26:12.407Z,99357.96
2023-04-14T07:28:40.659Z,99357.91
2023-04-14T07:31:10.716Z,99358.35
2023-04-14T07:33:40.405Z,99358.63
2023-04-14T07:36:09.502Z,99362.48
2023-04-14T07:38:37.727Z,99364.50
2023-04-14T07:41:06.844Z,99368.67
2023-04-14T07:44:18.480Z,99377.46
2023-04-14T07:46:46.647Z,99382.36
2023-04-14T07:49:14.908Z,99376.12
2023-04-14T07:51:44.406Z,99378.83
2023-04-14T07:54:12.978Z,99373.33
2023-04-14T07:56:41.435Z,99372.68
2023-04-14T07:59:12.435Z,99374.42
2023-04-14T08:01:41.068Z,99376.76
2023-04-14T08:04:09.529Z,99375.25
2023-04-14T08:06:39.088Z,99376.93
2023-04-14T08:09:08.199Z,99374.58
2023-04-14T08:11:36.507Z,99374.66
2023-04-14T08:14:04.960Z,99373.89
2023-04-14T08:16:37.030Z,99376.29
2023-04-14T08:19:07.213Z,99375.58
2023-04-14T08:21:35.726Z,99373.84
2023-04-14T08:24:07.580Z,99375.73
2023-04-14T08:26:35.985Z,99374.05
2023-04-14T08:29:04.882Z,99372.09
2023-04-14T08:31:37.521Z,99367.58
2023-04-14T08:34:06.202Z,99368.11
2023-04-14T08:36:34.460Z,99371.52
2023-04-14T08:39:05.287Z,99378.50
2023-04-14T08:41:34.495Z,99378.64
2023-04-14T08:44:02.808Z,99379.86
2023-04-14T08:46:32.455Z,99379.94
2023-04-14T08:49:06.786Z,99378.84
2023-04-14T08:51:36.098Z,99381.06
2023-04-14T08:54:09.542Z,99381.38
2023-04-14T08:56:39.340Z,99377.79
2023-04-14T08:59:08.560Z,99385.00
2023-04-14T09:01:39.775Z,99384.12
2023-04-14T09:04:08.964Z,99384.71
2023-04-14T09:06:38.488Z,99387.36
2023-04-14T09:09:08.731Z,99386.42
2023-04-14T09:11:37.839Z,99387.02
2023-04-14T09:14:06.199Z,99388.48
2023-04-14T09:16:36.174Z,99390.83
2023-04-14T09:19:06.839Z,99384.27
2023-04-14T09:21:52.288Z,99385.18
2023-04-14T09:24:31.720Z,99383.21
2023-04-14T09:27:05.488Z,99381.91
2023-04-14T09:29:34.042Z,99385.33
2023-04-14T09:32:02.674Z,99388.93
2023-04-14T09:34:31.404Z,99388.45
2023-04-14T09:37:07.143Z,99393.33
2023-04-14T09:39:37.026Z,99398.38
2023-04-14T09:42:05.523Z,99393.92
2023-04-14T09:44:34.187Z,99397.61
2023-04-14T09:47:06.741Z,99398.58
2023-04-14T09:49:35.531Z,99398.73
2023-04-14T09:52:08.004Z,99404.90
2023-04-14T09:54:36.299Z,99407.46
2023-04-14T09:57:06.584Z,99413.30
2023-04-14T09:59:36.847Z,99412.10
2023-04-14T10:02:08.690Z,99409.50
2023-04-14T10:04:38.263Z,99412.88
2023-04-14T10:07:12.296Z,99416.56
2023-04-14T10:09:41.829Z,99416.38
2023-04-14T10:12:14.537Z,99409.27
2023-04-14T10:14:44.299Z,99408.09
2023-04-14T10:17:13.713Z,99411.34
2023-04-14T10:19:42.178Z,99412.71
2023-04-14T10:22:10.927Z,99411.17
2023-04-14T10:24:40.138Z,99408.91
2023-04-14T10:27:08.422Z,99407.30
2023-04-14T10:29:40.790Z,99406.80
2023-04-14T10:32:09.669Z,99408.45
2023-04-14T10:34:38.752Z,99406.96
2023-04-14T10:37:13.219Z,99408.63
2023-04-14T10:39:42.325Z,99410.06
2023-04-14T10:42:10.533Z,99406.30
2023-04-14T10:44:39.373Z,99405.42
2023-04-14T10:47:08.582Z,99401.87
2023-04-14T10:49:38.923Z,99403.81
2023-04-14T10:52:13.571Z,99406.84
2023-04-14T10:54:53.517Z,99410.56
2023-04-14T10:57:22.828Z,99407.86
2023-04-14T10:59:57.359Z,99406.81
2023-04-14T11:02:32.864Z,99403.75
2023-04-14T11:05:10.716Z,99404.35
2023-04-14T11:07:54.556Z,99403.05
2023-04-14T11:10:22.994Z,99405.56
2023-04-14T11:13:13.133Z,99408.27
2023-04-14T11:16:14.788Z,99407.60
2023-04-14T11:18:46.286Z,99407.39
2023-04-14T11:21:16.510Z,99409.50
2023-04-14T11:23:48.245Z,99409.05
2023-04-14T11:26:24.652Z,99410.96
2023-04-14T11:28:57.828Z,99415.06
2023-04-14T11:31:27.663Z,99411.80
2023-04-14T11:33:56.831Z,99410.91
2023-04-14T11:36:25.226Z,99412.57
2023-04-14T11:38:53.683Z,99414.43
2023-04-14T11:43:52.630Z,99407.12
2023-04-14T11:46:22.219Z,99411.20
2023-04-14T11:48:58.020Z,99410.27
2023-04-14T11:51:33.678Z,99415.76
2023-04-14T11:54:02.359Z,99418.56
2023-04-14T11:56:31.928Z,99417.42
2023-04-14T11:59:04.495Z,99415.10
2023-04-14T12:01:33.012Z,99416.34
2023-04-14T12:04:03.211Z,99415.05
2023-04-14T12:06:35.912Z,99418.20
2023-04-14T12:09:08.847Z,99416.55
2023-04-14T12:11:40.535Z,99417.25
2023-04-14T12:14:08.863Z,99412.43
2023-04-14T12:16:38.245Z,99409.55
2023-04-14T12:19:07.778Z,99413.05
2023-04-14T12:21:36.126Z,99409.13
2023-04-14T12:24:04.572Z,99415.85
2023-04-14T12:26:32.839Z,99411.33
2023-04-14T12:29:02.109Z,99405.52
2023-04-14T12:31:31.270Z,99404.09
2023-04-14T12:34:02.004Z,99402.65
2023-04-14T12:36:48.072Z,99402.17
2023-04-14T12:39:22.337Z,99401.46
2023-04-14T12:41:50.754Z,99406.09
2023-04-14T12:44:20.604Z,99405.59
2023-04-14T12:46:51.048Z,99411.35
2023-04-14T12:49:38.674Z,99410.92
2023-04-14T12:52:08.528Z,99413.85
2023-04-14T12:54:51.769Z,99411.84
2023-04-14T12:57:22.912Z,99409.55
2023-04-14T12:59:52.964Z,99405.87
2023-04-14T13:02:21.734Z,99401.08
2023-04-14T13:04:51.660Z,99400.29
2023-04-14T13:07:20.325Z,99396.04
2023-04-14T13:09:48.576Z,99397.97
2023-04-14T13:12:16.722Z,99397.83
2023-04-14T13:14:46.160Z,99399.55
2023-04-14T13:17:16.286Z,99399.42
2023-04-14T13:19:44.546Z,99397.81
2023-04-14T13:22:13.867Z,99395.20
2023-04-14T13:24:43.884Z,99390.91
2023-04-14T13:27:12.494Z,99387.94
2023-04-14T13:29:47.823Z,99386.59
2023-04-14T13:32:17.472Z,99389.80
2023-04-14T13:34:46.307Z,99387.60
2023-04-14T13:37:16.754Z,99385.26
2023-04-14T13:39:45.408Z,99388.81
2023-04-14T13:42:15.182Z,99389.57
2023-04-14T13:44:43.729Z,99394.98
2023-04-14T13:47:12.895Z,99391.19
2023-04-14T13:49:41.203Z,99393.67
2023-04-14T13:52:09.422Z,99391.23
2023-04-14T13:54:37.570Z,99391.95
2023-04-14T13:57:08.164Z,99391.68
2023-04-14T13:59:36.718Z,99389.69
2023-04-14T14:02:06.318Z,99391.02
2023-04-14T14:04:37.081Z,99390.94
2023-04-14T14:07:05.378Z,99392.92
2023-04-14T14:09:34.115Z,99388.88
2023-04-14T14:12:02.762Z,99392.21
2023-04-14T14:14:31.945Z,99389.89
2023-04-14T14:17:01.491Z,99386.89
2023-04-14T14:19:29.950Z,99391.92
2023-04-14T14:21:58.581Z,99392.56
2023-04-14T14:24:27.629Z,99392.83
2023-04-14T14:26:57.113Z,99393.91
2023-04-14T14:29:25.412Z,99393.13
2023-04-14T14:31:53.571Z,99396.45
2023-04-14T14:34:21.876Z,99402.38
2023-04-14T14:36:51.508Z,99405.09
2023-04-14T14:39:21.760Z,99410.35
2023-04-14T14:41:50.798Z,99417.02
2023-04-14T14:44:20.055Z,99418.85
2023-04-14T14:46:52.780Z,99419.52
2023-04-14T14:49:21.619Z,99425.20
2023-04-14T14:51:50.818Z,99426.05
2023-04-14T14:54:19.083Z,99428.02
2023-04-14T14:56:47.613Z,99430.46
2023-04-14T14:59:16.523Z,99433.83
2023-04-14T15:01:46.573Z,99434.15
2023-04-14T15:04:16.342Z,99437.70
2023-04-14T15:06:44.790Z,99437.89
2023-04-14T15:09:15.083Z,99440.16
2023-04-14T15:11:47.237Z,99443.80
2023-04-14T15:14:15.592Z,99447.52
2023-04-14T15:16:43.801Z,99447.43
2023-04-14T15:19:19.320Z,99448.48
2023-04-14T15:21:47.939Z,99452.79
2023-04-14T15:24:16.267Z,99454.77
2023-04-14T15:26:48.420Z,99458.98
2023-04-14T15:29:19.566Z,99457.17
2023-04-14T15:31:48.228Z,99462.52
2023-04-14T15:34:17.159Z,99462.70
2023-04-14T15:36:48.088Z,99468.36
2023-04-14T15:39:18.123Z,99471.10
2023-04-14T15:41:50.519Z,99480.46
2023-04-14T15:44:19.065Z,99481.60
2023-04-14T15:46:47.648Z,99488.35
2023-04-14T15:49:19.198Z,99485.86
2023-04-14T15:51:49.147Z,99488.35
2023-04-14T15:54:19.049Z,99494.02
2023-04-14T15:56:53.443Z,99498.42
2023-04-14T15:59:22.599Z,99498.55
2023-04-14T16:01:51.245Z,99499.85
2023-04-14T16:04:19.727Z,99501.53
2023-04-14T16:06:49.510Z,99504.86
2023-04-14T16:09:17.699Z,99512.48
2023-04-14T16:11:46.007Z,99509.69
2023-04-14T16:14:15.526Z,99513.44
2023-04-14T16:16:47.220Z,99520.35
2023-04-14T16:19:18.469Z,99524.20
2023-04-14T16:21:52.418Z,99526.73
2023-04-14T16:24:21.583Z,99526.72
2023-04-14T16:26:49.775Z,99529.70
2023-04-14T16:29:19.659Z,99532.05
2023-04-14T16:31:49.325Z,99529.98
2023-04-14T16:34:20.391Z,99533.79
2023-04-14T16:36:49.232Z,99539.33
2023-04-14T16:39:17.506Z,99545.20
2023-04-14T16:41:45.791Z,99545.15
2023-04-14T16:44:15.083Z,99548.64
2023-04-14T16:46:44.119Z,99549.51
2023-04-14T16:49:13.523Z,99553.64
2023-04-14T16:51:48.120Z,99557.00
2023-04-14T16:54:16.699Z,99559.02
2023-04-14T16:56:45.487Z,99560.23
2023-04-14T16:59:14.073Z,99565.39
2023-04-14T17:01:42.451Z,99569.35
2023-04-14T17:04:11.323Z,99573.42
2023-04-14T17:06:44.064Z,99574.50
2023-04-14T17:09:12.522Z,99576.10
2023-04-14T17:11:42.198Z,99582.08
2023-04-14T17:14:10.389Z,99583.21
2023-04-14T17:16:39.750Z,99583.44
2023-04-14T17:19:09.144Z,99584.59
2023-04-14T17:21:38.812Z,99590.66
2023-04-14T17:24:12.688Z,99592.35
2023-04-14T17:26:41.338Z,99592.90
2023-04-14T17:29:09.973Z,99594.42
2023-04-14T17:31:39.902Z,99603.61
2023-04-14T17:34:11.696Z,99604.54
2023-04-14T17:36:40.028Z,99601.27
2023-04-14T17:39:08.509Z,99608.88
2023-04-14T17:41:37.397Z,99610.13
2023-04-14T17:44:07.247Z,99609.31
2023-04-14T17:46:36.416Z,99616.00
2023-04-14T17:49:04.795Z,99613.99
2023-04-14T17:51:35.367Z,99609.63
2023-04-14T17:54:05.682Z,99614.69
2023-04-14T17:56:33.987Z,99614.15
2023-04-14T17:59:02.475Z,99615.56
2023-04-14T18:01:31.173Z,99619.42
2023-04-14T18:04:00.385Z,99620.29
2023-04-14T18:06:32.152Z,99618.27
2023-04-14T18:09:04.791Z,99619.95
2023-04-14T18:11:33.420Z,99622.45
2023-04-14T18:14:01.855Z,99618.16
2023-04-14T18:16:36.099Z,99613.46
2023-04-14T18:19:04.828Z,99608.91
2023-04-14T18:21:35.201Z,99606.45
2023-04-14T18:26:37.338Z,99610.13
2023-04-14T18:29:08.554Z,99607.08
2023-04-14T18:31:37.131Z,99604.90
2023-04-14T18:34:20.842Z,99610.45
2023-04-14T18:36:49.198Z,99604.70
2023-04-14T18:39:18.911Z,99603.39
2023-04-14T18:41:48.600Z,99606.48
2023-04-14T18:44:17.309Z,99607.30
2023-04-14T18:46:45.712Z,99600.16
2023-04-14T18:49:14.122Z,99603.27
2023-04-14T18:51:42.438Z,99605.59
2023-04-14T18:54:11.396Z,99605.16
2023-04-14T18:56:42.144Z,99606.66
2023-04-14T18:59:10.491Z,99607.25
2023-04-14T19:01:39.511Z,99608.71
2023-04-14T19:04:08.356Z,99608.77
2023-04-14T19:06:36.760Z,99610.56
2023-04-14T19:09:05.233Z,99614.82
2023-04-14T19:11:42.532Z,99614.00
2023-04-14T19:14:12.858Z,99612.67
2023-04-14T19:16:41.143Z,99610.63
2023-04-14T19:19:10.044Z,99611.44
2023-04-14T19:21:39.711Z,99611.70
2023-04-14T19:24:08.530Z,99608.21
2023-04-14T19:26:40.710Z,99615.23
2023-04-14T19:29:10.844Z,99612.52
2023-04-14T19:31:39.770Z,99609.34
2023-04-14T19:34:07.935Z,99607.28
2023-04-14T19:36:36.141Z,99606.80
2023-04-14T19:39:05.201Z,99603.30
2023-04-14T19:41:34.897Z,99601.09
2023-04-14T19:44:04.734Z,99598.95
2023-04-14T19:46:35.761Z,99597.00
2023-04-14T19:49:05.425Z,99595.39
2023-04-14T19:51:33.791Z,99592.73
2023-04-14T19:54:05.670Z,99589.20
2023-04-14T19:56:35.705Z,99591.86
2023-04-14T20:00:53.367Z,99592.56
2023-04-14T20:03:24.763Z,99596.08
2023-04-14T20:05:55.084Z,99598.96
2023-04-14T20:08:27.387Z,99596.87
2023-04-14T20:10:56.045Z,99599.88
2023-04-14T20:13:27.682Z,99602.39
2023-04-14T20:15:58.901Z,99603.95
2023-04-14T20:18:28.692Z,99606.48
2023-04-14T20:20:57.571Z,99612.41
2023-04-14T20:23:25.966Z,99619.27
2023-04-14T20:25:56.074Z,99626.10
2023-04-14T20:28:26.818Z,99629.61
2023-04-14T20:30:56.005Z,99631.55
2023-04-14T20:33:31.032Z,99637.61
2023-04-14T20:36:01.823Z,99643.04
2023-04-14T20:38:30.399Z,99645.23
2023-04-14T20:41:01.370Z,99647.85
2023-04-14T20:43:34.517Z,99651.37
2023-04-14T20:46:03.924Z,99656.98
2023-04-14T20:48:35.559Z,99655.16
2023-04-14T20:51:04.544Z,99665.21
2023-04-14T20:53:32.944Z,99669.88
2023-04-14T20:56:01.650Z,99676.52
2023-04-14T20:58:31.851Z,99680.77
2023-04-14T21:01:02.345Z,99679.04
2023-04-14T21:03:34.553Z,99683.03
2023-04-14T21:06:03.190Z,99686.99
2023-04-14T21:08:31.578Z,99689.56
2023-04-14T21:11:15.268Z,99696.18
2023-04-14T21:15:25.085Z,99699.27
2023-04-14T21:16:37.341Z,99704.26
2023-04-14T21:19:06.467Z,99710.27
2023-04-14T21:21:43.763Z,99712.58
2023-04-14T21:24:13.809Z,99718.81
2023-04-14T21:26:42.804Z,99725.89
2023-04-14T21:29:14.689Z,99730.05
2023-04-14T21:31:42.872Z,99734.44
2023-04-14T21:34:12.113Z,99740.75
2023-04-14T21:36:41.061Z,99748.52
2023-04-14T21:39:09.879Z,99746.08
2023-04-14T21:41:38.116Z,99750.27
2023-04-14T21:44:07.665Z,99749.36
2023-04-14T21:46:36.677Z,99752.32
2023-04-14T21:49:05.249Z,99752.58
2023-04-14T21:51:33.542Z,99753.48
2023-04-14T21:54:02.688Z,99750.63
2023-04-14T21:56:31.498Z,99748.04
2023-04-14T21:59:00.024Z,99748.30
2023-04-14T22:01:31.458Z,99743.45
2023-04-14T22:04:00.886Z,99746.42
2023-04-14T22:06:29.841Z,99744.63
2023-04-14T22:09:02.020Z,99738.63
2023-04-14T22:11:32.337Z,99738.53
2023-04-14T22:14:03.012Z,99739.02
2023-04-14T22:16:37.927Z,99747.47
2023-04-14T22:19:09.146Z,99746.79
2023-04-14T22:21:37.956Z,99749.11
2023-04-14T22:24:06.484Z,99746.88
2023-04-14T22:26:36.653Z,99753.73
2023-04-14T22:29:05.645Z,99753.36
2023-04-14T22:31:33.785Z,99755.95
2023-04-14T22:34:02.793Z,99758.13
2023-04-14T22:36:31.677Z,99755.35
2023-04-14T22:39:00.241Z,99757.73
2023-04-14T22:41:28.937Z,99762.16
2023-04-14T22:43:57.408Z,99763.08
2023-04-14T22:46:26.474Z,99764.33
2023-04-14T22:48:56.711Z,99767.58
2023-04-14T22:51:25.459Z,99771.08
2023-04-14T22:53:54.202Z,99777.07
2023-04-14T22:56:25.854Z,99779.34
2023-04-14T22:58:56.630Z,99783.77
2023-04-14T23:01:25.705Z,99787.52
2023-04-14T23:03:54.808Z,99790.15
2023-04-14T23:06:23.063Z,99789.00
2023-04-14T23:08:52.455Z,99791.45
2023-04-14T23:11:21.998Z,99793.93
2023-04-14T23:13:50.828Z,99789.05
2023-04-14T23:16:22.586Z,99789.98
2023-04-14T23:18:54.348Z,99784.08
2023-04-14T23:21:22.755Z,99783.48
2023-04-14T23:23:51.970Z,99781.60
2023-04-14T23:26:27.465Z,99782.97
2023-04-14T23:28:57.268Z,99784.35
2023-04-14T23:31:25.550Z,99785.88
2023-04-14T23:33:54.365Z,99789.19
2023-04-14T23:36:24.171Z,99797.36
2023-04-14T23:38:53.957Z,99797.27
2023-04-14T23:41:25.993Z,99800.35
2023-04-14T23:43:54.548Z,99796.96
2023-04-14T23:46:23.127Z,99790.20
2023-04-14T23:48:58.971Z,99785.55
2023-04-14T23:51:39.373Z,99780.14
2023-04-14T23:54:08.532Z,99788.04
2023-04-14T23:56:39.709Z,99793.04
2023-04-14T23:59:09.061Z,99791.21
